Tiempo atmosférico en la estación meteorológica de Talarn, Lleida (799 m.)



Fecha
DESCASC
Temp. máxima en grados centígrados (hora)
DESCASC
Temp. mínima en grados centígrados (hora)
DESCASC
Temp. media en grados centígrados
DESCASC
Racha de viento máxima en m/sg (hora)
DESCASC
Velocidad máxima media en intervalos de 10 minutos(hora)
DESCASC
Precipitaciones diarias en mm
DESCASC
Precipitaciones de 00:00 a 06:00 en mm
DESCASC
Precipitaciones de 06:00 a 12:00 en mm
DESCASC
Precipitaciones de 12:00 a 18:00 en mm
DESCASC
Precipitaciones de 18:00 a 24:00 en mm
DESCASC
16-06-2019 27.9 (17:10) 10.8 (06:00) 19.3 11.39 (13:10) 6.11 (13:10) 0 0 0 0 0
15-06-2019 25.8 (15:40) 13.7 (05:30) 19.7 11.67 (17:20) 7.22 (17:20) 0 0 0 0 0
14-06-2019 25.2 (17:50) 12.6 (07:20) 18.9 15.56 (14:40) 10 (14:40) 0.4 0 0 0.4 0
13-06-2019 24.8 (16:20) 7.5 (00:00) 16.1 10 (14:50) 5.83 (18:30) 0 0 0 0 0
12-06-2019 19.7 (16:30) 3.4 (00:00) 11.6 11.67 (15:00) 6.39 (14:20) 0 0 0 0 0
11-06-2019 16.5 (01:40) 5.9 (00:00) 11.2 13.33 (02:20) 9.72 (02:20) 6.6 1.6 3.4 0.8 0.8
10-06-2019 24.8 (16:00) 13.4 (00:00) 19.1 13.33 (16:50) 8.33 (17:00) 0 0 0 0 0
09-06-2019 27.4 (17:20) 13.6 (00:00) 20.5 7.5 (18:10) 4.44 (13:40) 0 0 0 0 0
08-06-2019 25.8 (16:40) 7.2 (00:00) 16.5 10.56 (19:30) 6.39 (19:30) 0 0 0 0 0
07-06-2019 22.1 (15:40) 10 (00:00) 16.1 13.61 (12:50) 8.06 (12:40) 0 0 0 0 0
06-06-2019 22.6 (15:50) 7.4 (00:00) 15 12.5 (16:50) 9.17 (16:40) 0 0 0 0 0
05-06-2019 19.1 (17:00) 11 (00:00) 15.1 11.11 (17:10) 7.5 (17:10) 2.4 0 2 0.4 0
04-06-2019 29.3 (15:40) 13.8 (00:00) 21.5 11.39 (18:20) 6.94 (18:10) 0 0 0 0 0
03-06-2019 29.2 (15:40) 14.9 (00:00) 22.1 9.44 (18:20) 6.11 (18:20) 0.4 0 0.4 0 0
02-06-2019 30.9 (16:30) 14.1 (00:00) 22.5 9.44 (15:20) 5.83 (14:00) 0 0 0 0 0
01-06-2019 28.6 (15:50) 13.1 (00:00) 20.9 8.89 (16:40) 5.83 (15:50) 0 0 0 0 0
31-05-2019 26.8 (16:30) 10.6 (00:00) 18.7 8.89 (15:40) 5.28 (15:40) 0 0 0 0 0
30-05-2019 26.6 (17:30) 8.8 (00:00) 17.7 9.72 (15:20) 6.11 (14:50) 0 0 0 0 0
29-05-2019 20.7 (14:20) 7.4 (00:00) 14.1 12.78 (19:30) 7.78 (20:40) 0 0 0 0 0
28-05-2019 22.5 (16:10) 10.7 (00:00) 16.6 11.94 (14:30) 7.5 (14:30) 0 0 0 0 0
27-05-2019 24.2 (16:10) 8.5 (00:00) 16.4 10.83 (18:20) 6.94 (15:30) 0 0 0 0 0
26-05-2019 21.6 (15:50) 9.4 (00:00) 15.5 10.83 (16:10) 6.39 (16:10) 0 0 0 0 0
25-05-2019 20.6 (17:40) 10.3 (00:00) 15.5 8.33 (19:50) 5 (21:20) 0 0 0 0 0
24-05-2019 15.2 (17:40) 10.8 (00:00) 13 8.61 (04:20) 5 (13:10) 20.4 0.8 19.6 0 0
23-05-2019 26.6 (15:10) 10.2 (00:00) 18.4 10.56 (23:10) 6.11 (22:50) 1.8 0 0 0 1.8
22-05-2019 23.7 (16:40) 8.8 (00:00) 16.3 8.06 (15:10) 4.72 (15:50) 0 0 0 0 0

Gráficas

Temp. máximas Temp. mínimas Temp. medias Precipitaciones Rachas de viento máximas Velocidades máximas media en intervalos de 10 minutos

Datos horarios

Fecha y hora oficial Temperatura (ºC) Velocidad del viento (km/h) Dirección del viento Racha (km/h) Dirección de racha Precipitación (mm) Presión (hPa) Tendencia (hPa) Humedad (%)
2019-06-20 23:00:00 14.6 2 Sudeste 7 Oeste 0 923.6 0.6 97
2019-06-20 22:00:00 14.8 5 Noroeste 17 Norte 0 923.5 3 96
2019-06-20 21:00:00 14.5 18 Norte 35 Nordeste 6.6 922.7 2.3 97
2019-06-20 20:00:00 15.1 11 Norte 53 Oeste 14.4 923 2.1 89
2019-06-20 19:00:00 23.6 22 Sur 38 Sur 0 920.5 -0.9 48
2019-06-20 18:00:00 28 16 Sur 33 Sudoeste 0 920.4 -1.5 32
2019-06-20 17:00:00 27.5 15 Sur 28 Sur 0 920.9 -1.5 33
2019-06-20 16:00:00 25.6 15 Sur 26 Sur 0 921.4 -1.5 40
2019-06-20 15:00:00 26.1 20 Sur 27 Sur 0 921.9 -1.1 37
2019-06-20 14:00:00 26.9 9 Sur 26 Sudoeste 0 922.4 -0.8 34
2019-06-20 13:00:00 25.3 16 Sur 28 Sur 0 922.9 -0.4 39
2019-06-20 12:00:00 24.9 10 Sudoeste 24 Sur 0 923 -0.3 43
2019-06-20 11:00:00 24 12 Sudeste 23 Sur 0 923.2 0.2 47
2019-06-20 10:00:00 22.5 7 Sur 13 Este 0 923.3 0.7 50
2019-06-20 09:00:00 21.3 4 Este 12 Sudeste 0 923.3 1.1 54
2019-06-20 08:00:00 19.3 3 Este 12 Norte 0 923 1.1 57
2019-06-20 07:00:00 16.8 5 Norte 9 Norte 0 922.6 0.5 63
2019-06-20 06:00:00 16.2 4 Noroeste 10 Norte 0 922.2 -0.2 65
2019-06-20 05:00:00 16.3 2 Nordeste 12 Nordeste 0.2 921.9 -0.6 65
2019-06-20 04:00:00 18.1 2 Sudoeste 10 Sudoeste 0 922.1 0.1 56
2019-06-20 03:00:00 19.1 3 Noroeste 22 Oeste 0 922.4 0.5 48
2019-06-20 02:00:00 20.2 9 Oeste 16 Sudoeste 0 922.5 0.7 41
2019-06-20 01:00:00 20 8 Noroeste 10 Noroeste 0 922 0.4 41
2019-06-20 00:00:00 21.1 2 Oeste 17 Oeste 0 921.9 0.8 36
2019-06-19 23:00:00 20.9 13 Oeste 16 Oeste 0 921.8 0.8 36
2019-06-19 22:00:00 22.7 13 Oeste 16 Oeste 0 921.6 0.8 31
2019-06-19 21:00:00 24.3 10 Oeste 19 Oeste 0 921.1 0.2 28
2019-06-19 20:00:00 26.9 11 Sudoeste 28 Oeste 0 921 -0.2 23
2019-06-19 19:00:00 28 15 Oeste 28 Sudoeste 0 920.8 -0.6 21
2019-06-19 18:00:00 28.3 16 Sudoeste 34 Sudoeste 0 920.9 -0.6 21
2019-06-19 17:00:00 28.5 22 Sudoeste 35 Oeste 0 921.2 -0.7 22
2019-06-19 16:00:00 29.4 18 Sur 34 Sudoeste 0 921.4 -0.8 21
2019-06-19 15:00:00 29 20 Sur -- -- -- 921.5 -0.7 21
2019-06-19 14:00:00 29 14 Sur 33 Sur 0 921.9 -0.5 19
2019-06-19 13:00:00 28.3 10 Sur 23 Sur 0 922.2 -0.3 19
2019-06-19 12:00:00 26.7 11 Sur 19 Sudeste 0 922.2 -0.3 23
2019-06-19 11:00:00 23.5 7 Sur 15 Sur 0 922.4 0.2 27
2019-06-19 10:00:00 21.5 5 Sur 13 Sur 0 922.5 0.5 33
2019-06-19 09:00:00 19.6 6 Sur 10 Sur 0 922.5 0.5 38
2019-06-19 08:00:00 18.3 3 Sur 4 Sudoeste 0 922.2 0.3 35
2019-06-19 07:00:00 16.7 2 Sur 9 Norte 0 922 0.1 36
2019-06-19 06:00:00 15.5 2 Noroeste 10 Norte 0 922 0 36
2019-06-19 05:00:00 15.7 0 Calma 9 Norte 0 921.9 -0.3 37
2019-06-19 04:00:00 16.1 3 Norte 12 Norte 0 921.9 -0.6 35
2019-06-19 03:00:00 16.4 9 Norte 12 Noroeste 0 922 -0.9 35
2019-06-19 02:00:00 17.3 5 Oeste 10 Oeste 0 922.2 -1 33
2019-06-19 01:00:00 17.1 7 Oeste 11 Sudoeste 0 922.5 -0.1 35
2019-06-19 00:00:00 19 6 Sudoeste 12 Sudoeste 0 922.9 0.9 30
2019-06-18 23:00:00 20.8 6 Sudeste 23 Este 0 923.2 1.6 26
2019-06-18 22:00:00 21 6 Nordeste 26 Sudeste 0 922.6 1.4 27
2019-06-18 21:00:00 22.6 13 Sudeste 31 Sudeste 0 922 0.9 27
2019-06-18 20:00:00 25.8 19 Sur 30 Sur 0 921.6 0.2 22
2019-06-18 19:00:00 28.3 24 Sur 36 Sur 0 921.2 -0.7 22
2019-06-18 18:00:00 29.6 23 Sur 40 Sur 0 921.1 -1.4 21
2019-06-18 17:00:00 31.3 22 Sur 40 Sur 0 921.4 -1.6 17
2019-06-18 16:00:00 31.8 18 Sur 36 Sur 0 921.9 -1.6 15
2019-06-18 15:00:00 29.1 6 Sudeste 21 Sur 0 922.5 -1.3 19
2019-06-18 14:00:00 29.9 14 Sur 24 Sur 0 923 -0.9 20
2019-06-18 13:00:00 27.6 11 Sur 19 Sur 0 923.5 -0.3 22
2019-06-18 12:00:00 25.8 12 Sur 19 Sur 0 923.8 -0.5 32
2019-06-18 11:00:00 22.9 5 Sur 9 Sur 0 923.9 -0.2 43
2019-06-18 10:00:00 20.5 5 Sur 8 Sur 0 923.8 -0.1 50
2019-06-18 09:00:00 19.7 4 Sudoeste 7 Sur 0 924.3 0.4 50
2019-06-18 08:00:00 17.9 2 Sudeste 5 Sur 0 924.1 0.1 55
2019-06-18 07:00:00 16.8 5 Oeste 8 Norte 0 923.9 -0.2 53
2019-06-18 06:00:00 16.8 3 Norte 11 Este 0 923.9 -0.6 51
2019-06-18 05:00:00 16.9 3 Este 8 Nordeste 0 924 -1.1 52
2019-06-18 04:00:00 17.7 5 Sudoeste 8 Sudoeste 0 924.1 -1.2 49
2019-06-18 03:00:00 19.4 4 Este 12 Norte 0 924.5 -0.6 44
2019-06-18 02:00:00 17.7 9 Noroeste 11 Noroeste 0 925.1 0.3 50
2019-06-18 01:00:00 19.2 5 Sudoeste 11 Norte 0 925.3 0.9 48
2019-06-18 00:00:00 18.6 6 Noroeste 10 Norte 0 925.1 1.8 53
2019-06-17 23:00:00 20.7 6 Sur 10 Sudoeste 0 924.8 1.9 48
2019-06-17 22:00:00 21.9 9 Sudeste 26 Sudeste 0 924.4 1.7 42
2019-06-17 21:00:00 24 17 Sudeste 33 Sudeste 0 923.3 0.6 36
2019-06-17 20:00:00 27.6 14 Sur 28 Sur 0 922.9 -0.3 20
2019-06-17 19:00:00 29 15 Sur 29 Sur 0 922.7 -1 20
2019-06-17 18:00:00 29 14 Sur 27 Sur 0 922.7 -1.2 21
2019-06-17 17:00:00 29.8 14 Sur 32 Sur 0 923.2 -1.3 20
2019-06-17 16:00:00 29.9 12 Sudeste 34 Sur 0 923.7 -1.5 19
2019-06-17 15:00:00 29.6 24 Sudoeste 38 Sur 0 923.9 -1.6 18
2019-06-17 14:00:00 28.6 16 Sudeste 27 Sudeste 0 924.5 -1.5 20
2019-06-17 13:00:00 27.5 10 Sur 22 Sur 0 925.2 -1 23
2019-06-17 12:00:00 25.8 8 Sur 18 Sur 0 925.5 -0.9 27
2019-06-17 11:00:00 23.1 6 Sur 12 Sur 0 926 -0.3 36
2019-06-17 10:00:00 20.6 6 Sur 10 Sur 0 926.2 0.2 44
2019-06-17 09:00:00 18.3 4 Sur 8 Sur 0 926.4 0.5 51
2019-06-17 08:00:00 18 3 Sudeste 6 Sudeste 0 926.3 0.4 47
2019-06-17 07:00:00 15.4 3 Sudoeste 4 Sudoeste 0 926 0.2 54
2019-06-17 06:00:00 14.4 3 Oeste 10 Noroeste 0 925.9 -0.1 59
2019-06-17 05:00:00 13.8 10 Norte 12 Norte 0 925.9 -0.2 61
2019-06-17 04:00:00 15.6 3 Sudoeste 11 Norte 0 925.8 -0.4 55
2019-06-17 03:00:00 15.6 7 Norte 11 Norte 0 926 -0.5 56
2019-06-17 02:00:00 17.5 7 Noroeste 11 Noroeste 0 926.1 -0.1 45
2019-06-17 01:00:00 17.2 10 Norte 15 Noroeste 0 926.2 0.6 47
2019-06-17 00:00:00 17.6 12 Noroeste 14 Noroeste 0 926.5 1.5 50
2019-06-16 23:00:00 19.5 6 Este 12 Este 0 926.2 1.1 37
2019-06-16 22:00:00 20.2 6 Nordeste 10 Oeste 0 925.6 0.4 34
2019-06-16 21:00:00 22.1 11 Oeste 19 Sudoeste 0 925 -0.1 30
2019-06-16 20:00:00 24.3 14 Sudoeste 23 Oeste 0 925.1 -0.3 24
2019-06-16 19:00:00 26.2 15 Sudoeste 26 Sudoeste 0 925.2 -0.7 22
2019-06-16 18:00:00 26.8 15 Sudoeste 30 Sudoeste 0 925.1 -1.5 22
2019-06-16 17:00:00 27.7 14 Sudoeste 36 Sudoeste 0 925.4 -1.7 21
2019-06-16 16:00:00 27.1 11 Sudoeste 31 Sudoeste 0 925.9 -1.6 22
2019-06-16 15:00:00 26.7 14 Sudoeste 32 Sudoeste 0 926.6 -1.4 23
2019-06-16 14:00:00 25.6 15 Sudoeste 41 Sudoeste 0 927.1 -1.4 25
2019-06-16 13:00:00 25 12 Sudoeste 34 Oeste 0 927.5 -1.2 30
2019-06-16 12:00:00 22.3 10 Sudeste 23 Sur 0 928 -0.7 37
2019-06-16 11:00:00 19.9 7 Sur 17 Sudeste 0 928.5 0.1 43
2019-06-16 10:00:00 17.6 7 Sur 14 Sur 0 928.7 0.8 51
2019-06-16 09:00:00 15.7 5 Sur 8 Sudeste 0 928.7 0.9 58
2019-06-16 08:00:00 14.2 3 Sur 5 Sur 0 928.4 0.6 61
2019-06-16 07:00:00 13.2 3 Sur 8 Oeste 0 927.9 -0.1 69
2019-06-16 06:00:00 10.8 6 Norte 8 Norte 0 927.8 -0.3 75
2019-06-16 05:00:00 12.2 7 Noroeste 12 Noroeste 0 927.8 -0.3 68
2019-06-16 04:00:00 12.5 5 Oeste 9 Sudoeste 0 928 0.2 68
2019-06-16 03:00:00 12.7 5 Noroeste 10 Oeste 0 928.1 0.7 60
2019-06-16 02:00:00 14.6 6 Sur 14 Sudeste 0 928.1 1.2 50
2019-06-16 01:00:00 13.8 5 Noroeste 12 Norte 0 927.8 1.6 45
2019-06-16 00:00:00 16.3 4 Nordeste 14 Norte 0 927.4 2 36
2019-06-15 23:00:00 18 9 Norte 30 Oeste 0 926.9 2 32
2019-06-15 22:00:00 19 22 Oeste 30 Oeste 0 926.2 1.7 27
2019-06-15 21:00:00 20.2 21 Oeste 36 Sudoeste 0 925.4 1.3 27
2019-06-15 20:00:00 22.4 23 Sudoeste 35 Sudoeste 0 924.9 0.7 26
2019-06-15 19:00:00 23.8 21 Sudoeste 34 Oeste 0 924.5 0.3 26
2019-06-15 18:00:00 24.4 22 Sudoeste 42 Sudoeste 0 924.1 0 25
2019-06-15 17:00:00 24.6 23 Sudoeste 41 Sudoeste 0 924.2 -0.2 25
2019-06-15 16:00:00 25.6 19 Oeste 40 Oeste 0 924.2 -0.1 24
2019-06-15 15:00:00 25 16 Oeste 33 Sudoeste 0 924.1 -0.2 27
2019-06-15 14:00:00 24.9 13 Sudoeste 37 Sur 0 924.4 0.1 27
2019-06-15 13:00:00 24.1 20 Sur 32 Sudoeste 0 924.3 0.1 27
2019-06-15 12:00:00 22.5 14 Oeste 33 Sudoeste 0 924.3 0.3 30
2019-06-15 11:00:00 21.7 12 Sudoeste 26 Sudoeste 0 924.3 0.8 33
2019-06-15 10:00:00 20.4 9 Sudeste 17 Sudeste 0 924.2 0.9 46
2019-06-15 09:00:00 18.2 6 Sudoeste 12 Sudoeste 0 924 1.1 57
2019-06-15 08:00:00 16.6 3 Sudeste 7 Sur 0 923.5 0.8 65
2019-06-15 07:00:00 16 4 Noroeste 8 Noroeste 0 923.3 1 68
2019-06-15 06:00:00 13.9 5 Noroeste 11 Norte 0 922.9 0.8 73
2019-06-15 05:00:00 15.5 3 Oeste 8 Noroeste 0 922.7 0.9 67
2019-06-15 04:00:00 16.7 7 Norte 12 Sudeste 0 922.3 0.4 62
2019-06-15 03:00:00 17.4 9 Oeste 13 Oeste 0 922.1 0 58
2019-06-15 02:00:00 16.3 9 Noroeste 12 Noroeste 0 921.8 0.2 62
2019-06-15 01:00:00 17.1 8 Norte 14 Norte 0 921.9 1.2 59
2019-06-15 00:00:00 17.1 6 Norte 15 Norte 0 922.1 2.2 58
2019-06-14 23:00:00 18.1 4 Este 11 Sudeste 0 921.6 2.3 54
2019-06-14 22:00:00 17.2 2 Noroeste 8 Oeste 0 920.7 1.6 55
2019-06-14 21:00:00 20.3 6 Oeste 18 Sudoeste 0 919.9 1 43
2019-06-14 20:00:00 24.2 10 Sudoeste 17 Sur 0 919.3 0.4 33
2019-06-14 19:00:00 23.7 6 Sudoeste 30 Sudoeste 0 919.1 0 41
2019-06-14 18:00:00 24.7 17 Sur 30 Sur 0 918.9 0.2 37
2019-06-14 17:00:00 24.8 13 Sudoeste 23 Sudoeste 0 918.9 0.7 36
2019-06-14 16:00:00 23.4 13 Noroeste 48 Oeste 0 919.1 0.6 44
2019-06-14 15:00:00 17 32 Oeste 56 Sudoeste 0.4 918.7 -0.2 71
2019-06-14 14:00:00 24.3 15 Sur 24 Sur 0 918.2 -1 37
2019-06-14 13:00:00 24.3 12 Sur 22 Sudoeste 0 918.5 -0.6 36
2019-06-14 12:00:00 20.5 8 Sur 21 Sur 0 918.9 -0.7 45
2019-06-14 11:00:00 22.2 8 Sudeste 19 Sudeste 0 919.2 0.1 42
2019-06-14 10:00:00 20 5 Sudoeste 18 Sur 0 919.1 0.2 47
2019-06-14 09:00:00 17.3 11 Sur 18 Noroeste 0 919.6 1.4 55
2019-06-14 08:00:00 14.9 9 Oeste 26 Norte 0 919.1 1 57
2019-06-14 07:00:00 13.3 10 Sur 17 Norte 0 918.9 -0.2 65
2019-06-14 06:00:00 13.8 7 Sudeste 16 Norte 0 918.2 -1.8 58
2019-06-14 05:00:00 13.5 3 Noroeste 12 Sur 0 918.1 -2.8 59
2019-06-14 04:00:00 14.2 5 Norte 13 Norte 0 919.1 -2.1 57
2019-06-14 03:00:00 15 10 Norte 13 Norte 0 920 -1.9 51
2019-06-14 02:00:00 14.1 12 Noroeste 14 Noroeste 0 920.9 -0.8 57
2019-06-14 01:00:00 14.5 6 Norte 13 Norte 0 921.2 0.1 53
2019-06-14 00:00:00 14.3 9 Noroeste 12 Noroeste 0 921.9 1.1 51
2019-06-13 23:00:00 15.7 2 Noroeste 15 Sur 0 921.7 1.4 43
2019-06-13 22:00:00 17.5 7 Sudeste 22 Sudeste 0 921.1 1.1 38
2019-06-13 21:00:00 19 9 Sudeste 15 Sur 0 920.8 0.9 41
2019-06-13 20:00:00 20.8 3 Sur 24 Sur 0 920.3 0 39
2019-06-13 19:00:00 21.1 16 Sudeste 32 Sur 0 920 -0.9 33
2019-06-13 18:00:00 23.6 17 Sur 32 Sudeste 0 919.9 -1.2 27
2019-06-13 17:00:00 23.9 12 Sudeste 28 Sur 0 920.3 -1.5 29
2019-06-13 16:00:00 24.5 19 Sur 28 Sur 0 920.9 -1.5 28
2019-06-13 15:00:00 23.5 11 Sur 36 Sur 0 921.1 -1.8 29
2019-06-13 14:00:00 21.8 13 Sur 26 Sur 0 921.8 -1.2 31
2019-06-13 13:00:00 20.4 10 Este 20 Este 0 922.4 -0.7 33
2019-06-13 12:00:00 18.8 7 Sudeste 20 Sudeste 0 922.9 0 34
2019-06-13 11:00:00 18.9 6 Sur 17 Sur 0 923 0.3 32
2019-06-13 10:00:00 16.6 6 Sur 11 Sudoeste 0 923.1 0.7 40
2019-06-13 09:00:00 13 6 Sur 10 Sur 0 922.9 0.6 59
2019-06-13 08:00:00 12.5 3 Sudoeste 8 Norte 0 922.7 0.6 58
2019-06-13 07:00:00 9.8 3 Oeste 8 Norte 0 922.4 0.2 66
2019-06-13 06:00:00 7.8 2 Noroeste 8 Sur 0 922.3 -0.2 72
2019-06-13 05:00:00 9.5 4 Sur 8 Sudeste 0 922.1 -0.7 65
2019-06-13 04:00:00 10.5 2 Oeste 11 Norte 0 922.2 -0.6 62
2019-06-13 03:00:00 10.1 6 Norte 13 Noroeste 0 922.5 -0.1 65
2019-06-13 02:00:00 11 7 Norte 18 Sudeste 0 922.8 0.3 59
2019-06-13 01:00:00 11.5 5 Sudoeste 10 Norte 0 922.8 0.9 50
2019-06-13 00:00:00 11.4 5 Norte 14 Norte 0 922.6 1.6 50
2019-06-12 23:00:00 11.6 10 Norte 14 Norte 0 922.5 1.6 48
2019-06-12 22:00:00 13.5 6 Este 17 Sudeste 0 921.9 1.1 38
2019-06-12 21:00:00 13.7 7 Norte 14 Sudoeste 0 921 -0.1 37
2019-06-12 20:00:00 18.9 9 Sudoeste 22 Sudoeste 0 920.9 -0.6 23
2019-06-12 19:00:00 19.3 12 Sudoeste 32 Oeste 0 920.8 -0.6 22
2019-06-12 18:00:00 19.1 14 Sudoeste 40 Sur 0 921.1 -0.5 24
2019-06-12 17:00:00 19.6 17 Oeste 37 Sudoeste 0 921.5 -0.4 25
2019-06-12 16:00:00 18.4 19 Sudoeste 35 Sudoeste 0 921.4 -0.7 29
2019-06-12 15:00:00 18.4 22 Sur 42 Sudoeste 0 921.6 -0.7 29
2019-06-12 14:00:00 18 19 Sudoeste 36 Sur 0 921.9 -0.6 34
2019-06-12 13:00:00 16.8 17 Sudoeste 33 Sudoeste 0 922.1 -0.2 33
2019-06-12 12:00:00 15.3 11 Sur 23 Sur 0 922.3 0 51
2019-06-12 11:00:00 12.4 8 Sur 14 Sur 0 922.5 0.6 72
2019-06-12 10:00:00 10.8 9 Sur 14 Sur 0 922.3 0.8 81
2019-06-12 09:00:00 8 5 Sur 10 Sur 0 922.3 1.1 90
2019-06-12 08:00:00 8 3 Este 7 Sur 0 921.9 0.8 82
2019-06-12 07:00:00 6.3 4 Norte 9 Norte 0 921.5 0.5 87
2019-06-12 06:00:00 4 8 Noroeste 14 Norte 0 921.2 0 93
2019-06-12 05:00:00 3.9 11 Norte 14 Norte 0 921.1 0 91
2019-06-12 04:00:00 5 3 Este 12 Noroeste 0 921 -0.4 84
2019-06-12 03:00:00 4.6 4 Noroeste 11 Noroeste 0 921.2 -0.2 86
2019-06-12 02:00:00 5.1 9 Noroeste 10 Noroeste 0 921.1 -0.1 85
2019-06-12 01:00:00 5.6 8 Norte 11 Noroeste 0 921.4 0.7 82
2019-06-12 00:00:00 5.9 8 Noroeste 12 Noroeste 0 921.4 1 81
2019-06-11 23:00:00 6.9 7 Norte 16 Norte 0 921.2 1.2 78
2019-06-11 22:00:00 8 10 Norte 21 Nordeste 0 920.7 1.2 79
2019-06-11 21:00:00 9.2 9 Norte 21 Norte 0.6 920.4 1.1 77
2019-06-11 20:00:00 9.8 10 Norte 23 Nordeste 0.2 920 0.7 84
2019-06-11 19:00:00 10.2 17 Nordeste 28 Nordeste 0 919.5 0.1 77
2019-06-11 18:00:00 12.3 4 Sudeste 12 Sudoeste 0.2 919.3 -0.3 83
2019-06-11 17:00:00 11.9 9 Sur 16 Sur 0 919.3 -0.2 83
2019-06-11 16:00:00 11.9 8 Sur 15 Sur 0 919.4 -0.4 88
2019-06-11 15:00:00 10.6 6 Sur 15 Sur 0 919.6 -0.2 99
2019-06-11 14:00:00 10.2 8 Sur 13 Sur 0 919.5 -0.2 99
2019-06-11 13:00:00 9.5 5 Sur 13 Sur 0.6 919.8 0.3 99
2019-06-11 12:00:00 9.5 7 Sur 13 Sudeste 1 919.8 0.3 98
2019-06-11 11:00:00 9 6 Sur 14 Sur 0.6 919.7 0.4 97
2019-06-11 10:00:00 9.2 4 Sur 9 Sur 1 919.5 0.3 96
2019-06-11 09:00:00 9.2 5 Sur 9 Sur 0.4 919.5 0.2 96
2019-06-11 08:00:00 9.2 4 Sudoeste 7 Sur 0.2 919.3 -0.1 93
2019-06-11 07:00:00 8.9 4 Norte 8 Norte 0.2 919.2 -0.8 91
2019-06-11 06:00:00 8.9 5 Nordeste 14 Norte 0.8 919.3 -1.3 85
2019-06-11 05:00:00 9.1 12 Norte 19 Norte 0.6 919.4 -1.1 85
2019-06-11 04:00:00 10.4 7 Norte 23 Norte 0.2 920 -0.4 67
2019-06-11 03:00:00 11.8 18 Noroeste 48 Noroeste 0 920.6 0.2 59
2019-06-11 02:00:00 15.1 24 Noroeste 45 Oeste 0 920.5 0.6 35
2019-06-11 01:00:00 14.6 25 Noroeste 36 Noroeste 0 920.4 0.8 39
2019-06-11 00:00:00 15.4 26 Oeste 36 Oeste 0 920.4 1.1 34
2019-06-10 23:00:00 16 13 Oeste 21 Oeste 0 919.9 0.8 31
2019-06-10 22:00:00 17.5 13 Oeste 19 Oeste 0 919.6 0.5 23
2019-06-10 21:00:00 18.2 7 Oeste 31 Sudoeste 0 919.3 0 15
2019-06-10 20:00:00 19.5 21 Sudoeste 39 Sudoeste 0 919.1 -0.3 17
2019-06-10 19:00:00 20.6 23 Sudoeste 41 Sudoeste 0 919.1 -0.7 24
2019-06-10 18:00:00 23.1 25 Sudoeste 46 Sudoeste 0 919.3 -1 25
2019-06-10 17:00:00 23.8 30 Sudoeste 48 Sudoeste 0 919.4 -1.6 28
2019-06-10 16:00:00 24.2 22 Sudoeste 40 Sudoeste 0 919.8 -1.2 29
2019-06-10 15:00:00 23.9 18 Sudoeste 36 Sudoeste 0 920.3 -1 33
2019-06-10 14:00:00 23.8 23 Sudoeste 34 Sudoeste 0 921 -0.7 34
2019-06-10 13:00:00 23.6 20 Sur 36 Sur 0 921 -0.8 32
2019-06-10 12:00:00 22.3 15 Sur 25 Sur 0 921.3 -0.6 40
2019-06-10 11:00:00 20.8 10 Sur 19 Sur 0 921.7 0 42
2019-06-10 10:00:00 18.4 6 Sur 15 Sur 0 921.8 0.6 47
2019-06-10 09:00:00 17.1 6 Sudeste 11 Sudeste 0 921.9 0.9 54
2019-06-10 08:00:00 14 4 Oeste 17 Este 0 921.7 0.4 63
2019-06-10 07:00:00 15.7 11 Norte 30 Sudoeste 0 921.2 -0.4 54
2019-06-10 06:00:00 13.7 4 Noroeste 7 Norte 0 921 -1 56
2019-06-10 05:00:00 15.1 0 Calma 14 Norte 0 921.3 -1.2 55
2019-06-10 04:00:00 15.9 8 Norte 15 Noroeste 0 921.6 -1 56
2019-06-10 03:00:00 16.6 10 Norte 14 Norte 0 922 -0.5 47
2019-06-10 02:00:00 16.1 3 Este 10 Sudoeste 0 922.5 0.1 46
2019-06-10 01:00:00 17.8 0 Calma 8 Noroeste 0 922.6 0.9 39
2019-06-10 00:00:00 19.1 2 Sudoeste 10 Sudeste 0 922.5 1.5 37
2019-06-09 23:00:00 18.3 7 Norte 12 Sudoeste 0 922.4 1.6 40
2019-06-09 22:00:00 19.8 5 Noroeste 13 Sudeste 0 921.7 1.1 35
2019-06-09 21:00:00 21.5 7 Este 22 Oeste 0 921 0.3 33
2019-06-09 20:00:00 24.9 13 Sudoeste 26 Oeste 0 920.8 -0.3 27
2019-06-09 19:00:00 25.5 13 Sur 27 Sur 0 920.6 -1.4 26
2019-06-09 18:00:00 27.1 14 Sur 23 Sur 0 920.7 -2 25
2019-06-09 17:00:00 27 5 Sudeste 15 Sudeste 0 921.1 -2 25
2019-06-09 16:00:00 25.7 8 Sur 23 Sur 0 922 -1.6 25
2019-06-09 15:00:00 25.5 15 Sur 26 Sur 0 922.7 -1.4 27
2019-06-09 14:00:00 25 10 Sudeste 26 Sur 0 923.1 -1.6 25
2019-06-09 13:00:00 25 13 Sudeste 26 Sur 0 923.6 -1.3 26
2019-06-09 12:00:00 24.2 10 Sur 18 Este 0 924.1 -1 27
2019-06-09 11:00:00 22.2 7 Sur 15 Sur 0 924.7 -0.6 37
2019-06-09 10:00:00 20 4 Sudeste 12 Sur 0 924.9 0.1 51
2019-06-09 09:00:00 17 3 Oeste 10 Noroeste 0 925.1 -0.2 58
2019-06-09 08:00:00 14.7 7 Noroeste 10 Noroeste 0 925.3 -0.6 66
2019-06-09 07:00:00 13.9 2 Sudeste 10 Sudoeste 0 924.8 -1.7 66
2019-06-09 06:00:00 14.2 6 Oeste 10 Nordeste 0 925.3 -2.1 63
2019-06-09 05:00:00 14.7 6 Sudeste 11 Noroeste 0 925.9 -2 60
2019-06-09 04:00:00 15 4 Sudoeste 8 Norte 0 926.5 -2.2 57
2019-06-09 03:00:00 15 2 Oeste 8 Oeste 0 927.4 -1.5 56
2019-06-09 02:00:00 14.9 5 Sudoeste 9 Sudoeste 0 927.9 -1.7 55
2019-06-09 01:00:00 14.8 5 Noroeste 11 Norte 0 928.7 -0.2 56
2019-06-09 00:00:00 15.4 6 Nordeste 15 Norte 0 928.9 0.7 52
2019-06-08 23:00:00 16.2 6 Sudeste 26 Sudeste 0 929.6 2.5 50
2019-06-08 22:00:00 17.3 15 Sudeste 30 Sudeste 0 928.9 1.8 50
2019-06-08 21:00:00 18.9 14 Sudeste 29 Sudeste 0 928.2 0.8 48
2019-06-08 20:00:00 20.3 15 Sudeste 38 Sur 0 927.1 -0.5 44
2019-06-08 19:00:00 22.9 10 Sur 24 Sur 0 927.1 -1 29
2019-06-08 18:00:00 24.6 18 Sur 30 Sur 0 927.4 -1.2 27
2019-06-08 17:00:00 25.1 12 Sur 31 Sur 0 927.6 -1.7 27
2019-06-08 16:00:00 24.9 9 Sur 28 Sur 0 928.1 -1.9 25
2019-06-08 15:00:00 24 11 Sur 31 Sudeste 0 928.6 -1.9 23
2019-06-08 14:00:00 23.7 15 Sur 27 Sudoeste 0 929.3 -1.6 24
2019-06-08 13:00:00 21.9 10 Sudeste 19 Este 0 930 -1 26
2019-06-08 12:00:00 20.4 10 Sur 22 Sur 0 930.5 -0.5 30
2019-06-08 11:00:00 18.5 9 Sur 14 Sur 0 930.9 0.2 35
2019-06-08 10:00:00 15.2 5 Sur 16 Sur 0 931 0.8 44
2019-06-08 09:00:00 13.7 3 Sudoeste 7 Sur 0 931 1.2 47
2019-06-08 08:00:00 12.4 4 Sudeste 6 Sur 0 930.7 1.1 46
2019-06-08 07:00:00 10.1 3 Sur 6 Sur 0 930.2 1 54
2019-06-08 06:00:00 9.2 4 Sur 16 Noroeste 0 929.8 0.9 50
2019-06-08 05:00:00 8.8 5 Sudoeste 18 Norte 0 929.6 0.9 55
2019-06-08 04:00:00 9.3 13 Norte 15 Noroeste 0 929.2 0.6 48
2019-06-08 03:00:00 10.2 3 Noroeste 10 Norte 0 928.9 0.7 43
2019-06-08 02:00:00 11.5 8 Norte 13 Norte 0 928.7 1.2 38
2019-06-08 01:00:00 11.4 8 Norte 13 Norte 0 928.6 2.2 36
2019-06-08 00:00:00 12 10 Norte 16 Noroeste 0 928.2 2.8 33
2019-06-07 23:00:00 14.1 7 Sudeste 24 Noroeste 0 927.5 2.7 28
2019-06-07 22:00:00 15.3 17 Noroeste 26 Noroeste 0 926.4 2.2 26
2019-06-07 21:00:00 16.3 19 Noroeste 28 Oeste 0 925.4 1.8 28
2019-06-07 20:00:00 19.7 14 Sudoeste 30 Sudoeste 0 924.8 1.8 28
2019-06-07 19:00:00 20.4 15 Sudoeste 30 Oeste 0 924.2 1.4 28
2019-06-07 18:00:00 21.1 15 Sudoeste 39 Sudoeste 0 923.6 1.3 25
2019-06-07 17:00:00 21.4 21 Sudoeste 39 Sudoeste 0 923 0.9 20
2019-06-07 16:00:00 20.9 23 Sudoeste 44 Sudoeste 0 922.8 0.9 16
2019-06-07 15:00:00 21.6 18 Sudoeste 38 Sudoeste 0 922.3 0.7 21
2019-06-07 14:00:00 20.6 19 Sudoeste 48 Sudoeste 0 922.1 0.7 28
2019-06-07 13:00:00 19 22 Oeste 49 Oeste 0 921.9 1.6 34
2019-06-07 12:00:00 17.8 16 Oeste 43 Oeste 0 921.6 1.9 47
2019-06-07 11:00:00 14.6 21 Noroeste 41 Oeste 0 921.4 1.9 69
2019-06-07 10:00:00 15.8 8 Sur 18 Sur 0 920.3 1.1 60
2019-06-07 09:00:00 15.8 6 Sur 13 Este 0 919.7 0.7 59
2019-06-07 08:00:00 15 3 Norte 9 Norte 0 919.5 0.3 61
2019-06-07 07:00:00 12.3 2 Oeste 12 Noroeste 0 919.2 0 67
2019-06-07 06:00:00 11.3 7 Noroeste 13 Oeste 0 919 -0.4 72
2019-06-07 05:00:00 11 3 Este 8 Sudoeste 0 919.2 -0.3 74
2019-06-07 04:00:00 12.1 5 Sudoeste 13 Sudeste 0 919.2 -0.9 64
2019-06-07 03:00:00 12.5 4 Sudeste 14 Este 0 919.4 -1 61
2019-06-07 02:00:00 12.6 6 Nordeste 14 Norte 0 919.5 -0.8 53
2019-06-07 01:00:00 12.6 9 Nordeste 18 Nordeste 0 920.1 0 54
2019-06-07 00:00:00 13 6 Nordeste 21 Sudeste 0 920.4 0.6 54
2019-06-06 23:00:00 14 12 Sudeste 21 Sur 0 920.3 0.3 54
2019-06-06 22:00:00 14.6 13 Sudeste 28 Sudeste 0 920.1 0.2 54
2019-06-06 21:00:00 15.6 14 Sudeste 29 Sudeste 0 919.8 -0.3 47
2019-06-06 20:00:00 15.9 6 Sudeste 27 Sur 0 920 -0.3 49
2019-06-06 19:00:00 17.5 14 Sur 24 Sur 0 919.9 -0.5 50
2019-06-06 18:00:00 18.7 19 Sur 44 Sur 0 920.1 -1 45
2019-06-06 17:00:00 19.4 28 Sur 45 Sudoeste 0 920.3 -1.2 42
2019-06-06 16:00:00 20.4 22 Sur 40 Sur 0 920.4 -1.7 29
2019-06-06 15:00:00 21.8 20 Sur 39 Sur 0 921.1 -1.3 27
2019-06-06 14:00:00 20.4 21 Sur 37 Sur 0 921.5 -0.9 30
2019-06-06 13:00:00 19.2 23 Sur 37 Sur 0 922.1 -0.3 33
2019-06-06 12:00:00 17.3 11 Sur 22 Sudeste 0 922.4 0 39
2019-06-06 11:00:00 16.8 12 Sur 21 Sur 0 922.4 0.1 40
2019-06-06 10:00:00 14.7 5 Sur 13 Sudeste 0 922.4 0.3 51
2019-06-06 09:00:00 12.6 4 Sur 8 Sur 0 922.4 0.8 61
2019-06-06 08:00:00 11 3 Sur 5 Sudeste 0 922.3 0.9 61
2019-06-06 07:00:00 9.4 2 Sudoeste 7 Noroeste 0 922.1 1.1 64
2019-06-06 06:00:00 8.3 5 Noroeste 9 Norte 0 921.6 0.7 67
2019-06-06 05:00:00 7.5 8 Norte 10 Norte 0 921.4 0.8 71
2019-06-06 04:00:00 9.4 4 Sur 11 Norte 0 921 0.4 64
2019-06-06 03:00:00 8.9 4 Norte 12 Noroeste 0 920.9 0.7 65
2019-06-06 02:00:00 10.5 8 Oeste 10 Oeste 0 920.6 0.9 59
2019-06-06 01:00:00 10.4 12 Noroeste 15 Norte 0 920.6 1.6 61
2019-06-06 00:00:00 11.1 3 Oeste 17 Norte 0 920.2 2.5 56
2019-06-05 23:00:00 11.4 12 Norte 16 Norte 0 919.7 2.2 58
2019-06-05 22:00:00 13.1 6 Nordeste 22 Noroeste 0 919 2.3 53
2019-06-05 21:00:00 14.5 15 Noroeste 22 Noroeste 0 917.7 1.2 51
2019-06-05 20:00:00 17.7 10 Noroeste 22 Sudoeste 0 917.5 1 43
2019-06-05 19:00:00 18.8 10 Oeste 27 Oeste 0 916.7 0.3 39
2019-06-05 18:00:00 18.8 19 Sudoeste 40 Sudoeste 0 916.5 0.2 40
2019-06-05 17:00:00 18.9 11 Oeste 32 Sudoeste 0 916.5 0 49
2019-06-05 16:00:00 17.5 19 Sudoeste 27 Sudoeste 0 916.4 0.2 56
2019-06-05 15:00:00 16.6 17 Sudoeste 30 Sudoeste 0 916.3 0.8 66
2019-06-05 14:00:00 14.6 17 Oeste 32 Sudoeste 0 916.5 1.4 76
2019-06-05 13:00:00 14.2 21 Oeste 32 Sudoeste 0.4 916.2 1.2 85
2019-06-05 12:00:00 13.9 17 Sudoeste 27 Sudoeste 2 915.5 0.6 88
2019-06-05 11:00:00 16.1 16 Sur 33 Sur 0 915.1 0.2 61
2019-06-05 10:00:00 18 17 Sur 26 Sur 0 915 -0.1 43
2019-06-05 09:00:00 17.8 16 Sur 27 Sur 0 914.9 -0.5 38
2019-06-05 08:00:00 16.7 2 Sur 15 Sudeste 0 914.9 -0.7 39
2019-06-05 07:00:00 16.3 6 Sudeste 14 Sur 0 915.1 -1.1 34
2019-06-05 06:00:00 16.3 5 Sur 13 Sudeste 0 915.4 -1.4 31
2019-06-05 05:00:00 16.2 2 Este 10 Oeste 0 915.6 -2.1 29
2019-06-05 04:00:00 17 4 Sudoeste 13 Sudoeste 0 916.2 -2.1 28
2019-06-05 03:00:00 16.1 4 Noroeste 17 Sudeste 0 916.8 -1.4 31
2019-06-05 02:00:00 16.7 3 Nordeste 11 Sur 0 917.7 -0.6 29
2019-06-05 01:00:00 18.2 5 Sur 10 Sudoeste 0 918.3 0.4 26
2019-06-05 00:00:00 18.8 4 Sudeste 19 Sudeste 0 918.2 0.4 28
2019-06-04 23:00:00 19.1 10 Sudeste 22 Sudeste 0 918.3 0.5 31
2019-06-04 22:00:00 19.8 13 Sudeste 26 Sur 0 917.9 0.1 37
2019-06-04 21:00:00 21.1 12 Sudeste 31 Sudeste 0 917.8 0 34
2019-06-04 20:00:00 23.1 11 Sudeste 26 Sur 0 917.8 -0.5 31
2019-06-04 19:00:00 25.4 15 Sudeste 41 Sur 0 917.8 -1.2 27
2019-06-04 18:00:00 27.9 23 Sur 40 Sudeste 0 917.8 -1.7 25
2019-06-04 17:00:00 28.6 22 Sur 36 Sur 0 918.3 -1.8 24
2019-06-04 16:00:00 28.6 16 Sur 28 Sur 0 919 -1.7 24
2019-06-04 15:00:00 28 13 Sudeste 28 Sur 0 919.5 -1.5 24
2019-06-04 14:00:00 27.2 14 Sur 28 Sur 0 920.1 -1.1 25
2019-06-04 13:00:00 25.9 11 Sur 23 Sur 0 920.7 -0.5 26
2019-06-04 12:00:00 24.7 8 Sudeste 19 Sudeste 0 921 -0.2 29
2019-06-04 11:00:00 23.4 9 Sur 17 Sudeste 0 921.2 0.1 29
2019-06-04 10:00:00 20.4 4 Sur 8 Sur 0 921.2 0 49
2019-06-04 09:00:00 18.7 5 Sur 7 Sur 0 921.2 -0.2 51
2019-06-04 08:00:00 18.3 3 Sudoeste 5 Sur 0 921.1 -0.4 46
2019-06-04 07:00:00 15.8 0 Calma 8 Norte 0 921.2 -0.8 50
2019-06-04 06:00:00 13.8 4 Noroeste 11 Norte 0 921.4 -1 58
2019-06-04 05:00:00 15.4 9 Norte 12 Norte 0 921.5 -1.6 52
2019-06-04 04:00:00 15.4 5 Norte 6 Norte 0 922 -1.6 49
2019-06-04 03:00:00 16.9 4 Sudoeste 11 Norte 0 922.4 -1.5 42
2019-06-04 02:00:00 16 10 Norte 12 Norte 0 923.1 -1.1 47
2019-06-04 01:00:00 17.4 8 Oeste 12 Oeste 0 923.6 -0.3 41
2019-06-04 00:00:00 17.5 8 Oeste 11 Oeste 0 923.9 0.2 40
2019-06-03 23:00:00 19.3 6 Sudoeste 11 Oeste 0 924.2 0.6 37
2019-06-03 22:00:00 20.5 4 Sudoeste 11 Sudoeste 0 923.9 0.3 33
2019-06-03 21:00:00 22.1 7 Sudeste 22 Sudeste 0 923.7 0 29
2019-06-03 20:00:00 24 14 Sudeste 25 Sudeste 0 923.6 -0.1 27
2019-06-03 19:00:00 26.6 18 Sur 34 Sudeste 0 923.6 -0.6 25
2019-06-03 18:00:00 28 19 Sudeste 31 Sudeste 0 923.7 -1 23
2019-06-03 17:00:00 28.7 16 Sur 28 Sur 0 923.7 -1.4 22
2019-06-03 16:00:00 28.7 8 Sur 26 Sur 0 924.2 -1.4 24
2019-06-03 15:00:00 27.9 9 Sur 20 Sur 0 924.7 -1.4 26
2019-06-03 14:00:00 27.9 9 Sudeste 19 Sur 0 925.1 -0.7 28
2019-06-03 13:00:00 26.3 10 Sur 18 Sur 0 925.6 -0.3 32
2019-06-03 12:00:00 24.1 7 Sudeste 13 Sur 0 926.1 0.3 37
2019-06-03 11:00:00 21.5 4 Oeste 10 Sur 0 925.8 0.2 56
2019-06-03 10:00:00 19.5 6 Sur 9 Sur 0 925.9 0.3 64
2019-06-03 09:00:00 18.6 3 Sur 8 Sur 0 925.8 -0.1 69
2019-06-03 08:00:00 15.7 5 Oeste 14 Norte 0 925.6 -0.5 73
2019-06-03 07:00:00 15.1 8 Nordeste 23 Oeste 0.4 925.6 -0.7 72
2019-06-03 06:00:00 16.5 3 Sudeste 5 Sudeste 0 925.9 -0.6 57
2019-06-03 05:00:00 16.8 4 Sur 7 Noroeste 0 926.1 -0.8 54
2019-06-03 04:00:00 16.8 4 Noroeste 8 Nordeste 0 926.3 -0.4 52
2019-06-03 03:00:00 17 4 Nordeste 9 Sur 0 926.5 -0.1 52
2019-06-03 02:00:00 18.5 5 Oeste 13 Norte 0 926.9 0.3 45
2019-06-03 01:00:00 18.2 9 Norte 12 Norte 0 926.7 0.3 47
2019-06-03 00:00:00 20 6 Oeste 12 Oeste 0 926.6 0.8 39
2019-06-02 23:00:00 20.5 9 Oeste 12 Oeste 0 926.6 1.5 37
2019-06-02 22:00:00 21.7 7 Oeste 10 Oeste 0 926.4 1.8 33
2019-06-02 21:00:00 22.9 8 Nordeste 24 Sudeste 0 925.8 1 34
2019-06-02 20:00:00 26 17 Sudeste 25 Sur 0 925.1 0.4 28
2019-06-02 19:00:00 28.4 15 Sur 24 Sur 0 924.6 -0.3 21
2019-06-02 18:00:00 28.2 15 Sudoeste 33 Sudoeste 0 924.8 -0.7 21
2019-06-02 17:00:00 30 16 Sudoeste 30 Sudoeste 0 924.7 -1.3 21
2019-06-02 16:00:00 30.7 16 Sudoeste 34 Sudoeste 0 924.9 -1.9 23
2019-06-02 15:00:00 30.3 14 Sudoeste 30 Sudoeste 0 925.5 -1.8 23
2019-06-02 14:00:00 29.4 21 Sur 33 Sudoeste 0 926 -1.5 26
2019-06-02 13:00:00 27.6 15 Sur 24 Sur 0 926.8 -1 32
2019-06-02 12:00:00 25.2 9 Sudoeste 18 Sur 0 927.3 -0.5 39
2019-06-02 11:00:00 22.9 8 Sur 15 Sur 0 927.5 -0.2 45
2019-06-02 10:00:00 20.3 6 Sur 10 Sur 0 927.8 0.1 54
2019-06-02 09:00:00 18.4 4 Sur 6 Sur 0 927.8 0.3 57
2019-06-02 08:00:00 17.6 2 Oeste 5 Sudoeste 0 927.7 0.1 53
2019-06-02 07:00:00 15.7 0 Calma 9 Noroeste 0 927.7 -0.1 60
2019-06-02 06:00:00 14.4 9 Noroeste 10 Noroeste 0 927.5 -0.6 64
2019-06-02 05:00:00 14.6 3 Norte 5 Sur 0 927.6 -0.8 61
2019-06-02 04:00:00 16.4 2 Sur 5 Noroeste 0 927.8 -0.8 53
2019-06-02 03:00:00 16.6 0 Calma 4 Oeste 0 928.1 -0.5 52
2019-06-02 02:00:00 17.2 5 Noroeste 11 Norte 0 928.4 -0.3 50
2019-06-02 01:00:00 16.8 9 Noroeste 10 Noroeste 0 928.6 0.5 53
2019-06-02 00:00:00 18.5 6 Oeste 10 Oeste 0 928.6 1.4 46
2019-06-01 23:00:00 18.9 5 Oeste 12 Sudoeste 0 928.7 1.6 46
2019-06-01 22:00:00 21.1 5 Sudoeste 14 Sudeste 0 928.1 1.3 42
2019-06-01 21:00:00 23.7 12 Oeste 22 Sudoeste 0 927.2 0.2 32
2019-06-01 20:00:00 26 16 Sudoeste 24 Oeste 0 927.1 0 28
2019-06-01 19:00:00 26.6 18 Sur 27 Sur 0 926.8 -0.8 27
2019-06-01 18:00:00 27.6 17 Sur 30 Sur 0 927 -1.3 27
2019-06-01 17:00:00 28.2 18 Sur 32 Sur 0 927.1 -1.9 26
2019-06-01 16:00:00 28.4 15 Sur 31 Sur 0 927.6 -2.1 28
2019-06-01 15:00:00 27.5 17 Sur 31 Sudoeste 0 928.3 -2 29
2019-06-01 14:00:00 27.1 18 Sur 28 Sudoeste 0 929 -1.4 29
2019-06-01 13:00:00 25.3 10 Sur 22 Sur 0 929.7 -0.9 32
2019-06-01 12:00:00 24.3 11 Sur 17 Sur 0 930.3 -0.4 32
2019-06-01 11:00:00 21.6 6 Sur 13 Sur 0 930.4 -0.1 47
2019-06-01 10:00:00 19.8 6 Sur 11 Sur 0 930.6 0.3 56
2019-06-01 09:00:00 17.5 4 Sur 8 Sudoeste 0 930.7 0.7 59
2019-06-01 08:00:00 16.1 2 Sudoeste 5 Sur 0 930.5 0.5 61
2019-06-01 07:00:00 14.8 0 Calma 4 Sudoeste 0 930.3 0.2 68
2019-06-01 06:00:00 13.4 2 Sur 8 Norte 0 930 -0.2 69
2019-06-01 05:00:00 13.8 8 Norte 13 Norte 0 930 -0.4 68
2019-06-01 04:00:00 15.1 3 Sur 10 Noroeste 0 930.1 -0.5 62
2019-06-01 03:00:00 14.9 6 Oeste 9 Noroeste 0 930.2 -0.6 63
2019-06-01 02:00:00 15.8 3 Sur 12 Norte 0 930.4 -0.3 59
2019-06-01 01:00:00 15.7 9 Norte 12 Norte 0 930.6 0.4 60
2019-06-01 00:00:00 16.4 6 Noroeste 11 Norte 0 930.8 1.2 57
2019-05-31 23:00:00 17.6 6 Oeste 11 Sudoeste 0 930.7 1.4 53
2019-05-31 22:00:00 18.4 4 Oeste 13 Sudeste 0 930.2 1 50
2019-05-31 21:00:00 20.1 6 Noroeste 12 Oeste 0 929.6 0.3 41
2019-05-31 20:00:00 23.9 6 Sur 21 Sur 0 929.3 -0.2 32
2019-05-31 19:00:00 24.9 16 Sur 25 Sur 0 929.2 -0.5 30
2019-05-31 18:00:00 25.9 16 Sur 26 Sur 0 929.3 -0.8 29
2019-05-31 17:00:00 26.1 14 Sur 28 Sur 0 929.5 -1 27
2019-05-31 16:00:00 26.1 14 Sur 32 Sur 0 929.7 -1.6 29
2019-05-31 15:00:00 25.4 14 Sur 23 Sur 0 930.1 -1.6 27
2019-05-31 14:00:00 24.6 11 Sur 24 Sudeste 0 930.5 -1.3 29
2019-05-31 13:00:00 23.2 9 Sur 21 Sur 0 931.3 -0.8 29
2019-05-31 12:00:00 22.1 9 Sur 21 Sur 0 931.7 -0.3 31
2019-05-31 11:00:00 20.2 9 Sudeste 17 Sudeste 0 931.8 -0.1 42
2019-05-31 10:00:00 18.5 5 Sur 9 Sudeste 0 932.1 0.4 51
2019-05-31 09:00:00 14.4 6 Sur 13 Noroeste 0 932 0.6 64
2019-05-31 08:00:00 15.1 7 Norte 10 Norte 0 931.9 0.4 61
2019-05-31 07:00:00 13.3 3 Sur 10 Noroeste 0 931.7 0.2 66
2019-05-31 06:00:00 11.4 5 Norte 12 Norte 0 931.4 -0.4 71
2019-05-31 05:00:00 12.8 2 Sudoeste 11 Norte 0 931.5 -0.5 70
2019-05-31 04:00:00 13.5 3 Sudoeste 9 Noroeste 0 931.5 -0.6 68
2019-05-31 03:00:00 13.4 8 Noroeste 12 Noroeste 0 931.8 -0.3 64
2019-05-31 02:00:00 14.2 4 Sudoeste 15 Sudoeste 0 932 0.1 66
2019-05-31 01:00:00 15.4 11 Oeste 17 Sudoeste 0 932.1 0.9 62
2019-05-31 00:00:00 16.5 3 Sudoeste 9 Norte 0 932.1 1.7 51
2019-05-30 23:00:00 16.8 5 Nordeste 11 Norte 0 931.9 2.2 50
2019-05-30 22:00:00 18.1 6 Noroeste 12 Oeste 0 931.2 1.8 47
2019-05-30 21:00:00 19.7 5 Oeste 21 Sudoeste 0 930.4 1 43
2019-05-30 20:00:00 23.6 11 Sudoeste 26 Sudoeste 0 929.7 -0.1 31
2019-05-30 19:00:00 24.6 18 Sudoeste 28 Sudoeste 0 929.4 -0.5 28
2019-05-30 18:00:00 26.4 15 Sudoeste 29 Sudoeste 0 929.4 -0.7 25
2019-05-30 17:00:00 26.3 19 Sudoeste 32 Sudoeste 0 929.8 -0.7 27
2019-05-30 16:00:00 25.7 18 Sur 35 Sur 0 929.9 -1 27
2019-05-30 15:00:00 25.6 18 Sur 34 Sur 0 930.1 -1.2 25
2019-05-30 14:00:00 24.2 13 Sur 27 Sur 0 930.5 -1 28
2019-05-30 13:00:00 23 13 Sur 27 Sudoeste 0 930.9 -0.8 30
2019-05-30 12:00:00 21.1 10 Sudoeste 21 Sudoeste 0 931.3 -0.3 33
2019-05-30 11:00:00 18 6 Sur 13 Sur 0 931.5 0.1 41
2019-05-30 10:00:00 15.9 6 Sur 10 Sur 0 931.7 0.7 47
2019-05-30 09:00:00 14.5 4 Sur 8 Sur 0 931.6 0.9 45
2019-05-30 08:00:00 13.1 3 Sudoeste 6 Sur 0 931.4 0.9 49
2019-05-30 07:00:00 10.2 4 Sudoeste 5 Sudoeste 0 931 0.5 56
2019-05-30 06:00:00 9.6 0 Calma 4 Sudoeste 0 930.7 0.3 57
2019-05-30 05:00:00 10.5 3 Oeste 12 Noroeste 0 930.5 -0.1 54
2019-05-30 04:00:00 9.9 7 Noroeste 10 Noroeste 0 930.5 -0.3 57
2019-05-30 03:00:00 11.6 4 Sudeste 17 Noroeste 0 930.4 0.1 48
2019-05-30 02:00:00 11 15 Norte 17 Norte 0 930.6 0.3 49
2019-05-30 01:00:00 12.1 9 Norte 26 Norte 0 930.8 1.2 44
2019-05-30 00:00:00 13.3 12 Norte 24 Norte 0 930.3 1.6 40
2019-05-29 23:00:00 12.8 11 Norte 21 Norte 0 930.3 2.3 41
2019-05-29 22:00:00 13.6 10 Norte 32 Nordeste 0 929.6 2.2 38
2019-05-29 21:00:00 14.8 21 Nordeste 44 Nordeste 0 928.7 1.8 33
2019-05-29 20:00:00 16.5 25 Nordeste 46 Nordeste 0 928 1.3 30
2019-05-29 19:00:00 18.2 20 Nordeste 43 Nordeste 0 927.4 0.8 27
2019-05-29 18:00:00 19.2 21 Nordeste 41 Nordeste 0 926.9 0.3 24
2019-05-29 17:00:00 20.1 14 Nordeste 35 Este 0 926.7 -0.1 23
2019-05-29 16:00:00 20.2 14 Este 31 Este 0 926.6 -0.5 23
2019-05-29 15:00:00 20.5 14 Este 30 Sudeste 0 926.6 -0.7 23
2019-05-29 14:00:00 20 9 Sur 27 Sur 0 926.8 -0.3 28
2019-05-29 13:00:00 18.3 10 Sudeste 25 Sudeste 0 927.1 -0.2 28
2019-05-29 12:00:00 16.8 13 Este 24 Este 0 927.3 0.1 30
2019-05-29 11:00:00 16.2 9 Sur 15 Sur 0 927.1 0.3 35
2019-05-29 10:00:00 15.4 9 Sur 18 Sudeste 0 927.3 0.8 39
2019-05-29 09:00:00 14.1 8 Sudeste 19 Este 0 927.2 1.2 50
2019-05-29 08:00:00 13 7 Nordeste 15 Norte 0 926.8 1.2 39
2019-05-29 07:00:00 10.5 8 Norte 14 Norte 0 926.5 1 46
2019-05-29 06:00:00 7.4 10 Norte 13 Norte 0 926 0.9 57
2019-05-29 05:00:00 8.4 10 Norte 13 Norte 0 925.6 1 53
2019-05-29 04:00:00 8.3 6 Norte 11 Noroeste 0 925.5 1.2 51
2019-05-29 03:00:00 8.7 3 Norte 12 Noroeste 0 925.1 1 48
2019-05-29 02:00:00 10.8 7 Este 20 Nordeste 0 924.6 1 42
2019-05-29 01:00:00 11.3 11 Este 17 Este 0 924.3 1.4 36
2019-05-29 00:00:00 11.4 10 Norte 19 Noroeste 0 924.1 2.4 33
2019-05-28 23:00:00 12.1 8 Este 15 Nordeste 0 923.6 2.6 34
2019-05-28 22:00:00 14.3 10 Nordeste 24 Nordeste 0 922.9 2.4 28
2019-05-28 21:00:00 16 14 Nordeste 25 Nordeste 0 921.7 1.4 28
2019-05-28 20:00:00 17.2 15 Nordeste 26 Nordeste 0 921 1 30
2019-05-28 19:00:00 18.8 12 Nordeste 21 Nordeste 0 920.5 0.6 30
2019-05-28 18:00:00 19.9 5 Este 14 Este 0 920.3 0.3 35
2019-05-28 17:00:00 19.4 10 Nordeste 36 Oeste 0 920 -0.2 34
2019-05-28 16:00:00 22.2 13 Sudoeste 43 Sudoeste 0 919.9 -0.5 31
2019-05-28 15:00:00 21 25 Sudoeste 43 Sudoeste 0 920 -0.7 36
2019-05-28 14:00:00 20.5 24 Sudoeste 37 Sudoeste 0 920.2 -0.5 43
2019-05-28 13:00:00 20.5 20 Oeste 38 Sudoeste 0 920.4 -0.4 39
2019-05-28 12:00:00 18.5 9 Sur 22 Sur 0 920.7 0 44
2019-05-28 11:00:00 18.1 10 Sur 18 Sur 0 920.7 0.2 47
2019-05-28 10:00:00 16.2 8 Sur 14 Sur 0 920.8 0.8 60
2019-05-28 09:00:00 14.7 5 Sur 8 Sur 0 920.7 1.1 70
2019-05-28 08:00:00 13.4 4 Sur 5 Sur 0 920.5 0.8 77
2019-05-28 07:00:00 12.1 5 Sudoeste 9 Sudoeste 0 920 0.3 81
2019-05-28 06:00:00 10.9 4 Oeste 9 Oeste 0 919.6 0 86
2019-05-28 05:00:00 12 6 Oeste 12 Sudoeste 0 919.7 -0.2 81
2019-05-28 04:00:00 12.2 7 Sudoeste 12 Sudoeste 0 919.7 -0.6 81
2019-05-28 03:00:00 12.6 5 Sudoeste 8 Oeste 0 919.6 -0.6 74
2019-05-28 02:00:00 13.6 4 Oeste 9 Sur 0 919.9 -0.3 64
2019-05-28 01:00:00 14.3 5 Sur 21 Norte 0 920.3 0.7 54
2019-05-28 00:00:00 14.7 12 Norte 19 Norte 0 920.2 1.1 52
2019-05-27 23:00:00 16.6 8 Nordeste 18 Nordeste 0 920.2 1.7 46
2019-05-27 22:00:00 15.6 9 Norte 22 Nordeste 0 919.6 1.3 51
2019-05-27 21:00:00 17.9 10 Nordeste 22 Sudeste 0 919.1 1.2 41
2019-05-27 20:00:00 21.4 15 Sudoeste 26 Sudoeste 0 918.5 0.4 43
2019-05-27 19:00:00 23.4 13 Oeste 39 Sudoeste 0 918.3 -0.3 37
2019-05-27 18:00:00 23.1 22 Sudoeste 36 Sudoeste 0 917.9 -1 39
2019-05-27 17:00:00 22.9 15 Sudoeste 38 Sudoeste 0 918.1 -1.3 38
2019-05-27 16:00:00 24 16 Oeste 38 Sudoeste 0 918.6 -1.2 34
2019-05-27 15:00:00 22.8 21 Sudoeste 39 Oeste 0 918.9 -1.3 37
2019-05-27 14:00:00 22.5 18 Sudoeste 37 Sudoeste 0 919.4 -1 41
2019-05-27 13:00:00 21.9 19 Sudoeste 31 Sudoeste 0 919.8 -1.2 38
2019-05-27 12:00:00 18.6 7 Sur 16 Sur 0 920.2 -0.8 47
2019-05-27 11:00:00 17.8 9 Sur 17 Sur 0 920.4 -0.7 48
2019-05-27 10:00:00 14.6 5 Sur 9 Sur 0 921 0.1 57
2019-05-27 09:00:00 14.3 4 Sur 8 Sur 0 921 0 55
2019-05-27 08:00:00 12.9 2 Sudoeste 5 Sudoeste 0 921.1 0 54
2019-05-27 07:00:00 11.4 3 Oeste 8 Norte 0 920.9 -0.6 57
2019-05-27 06:00:00 8.9 2 Norte 6 Sudoeste 0 921 -0.8 63
2019-05-27 05:00:00 10.9 4 Oeste 12 Noroeste 0 921.1 -1.3 55
2019-05-27 04:00:00 11.4 4 Oeste 8 Norte 0 921.5 -1.6 54
2019-05-27 03:00:00 12.1 5 Norte 18 Norte 0 921.8 -1.5 52
2019-05-27 02:00:00 14.1 13 Nordeste 27 Norte 0 922.4 -0.7 44
2019-05-27 01:00:00 14.1 10 Norte 20 Norte 0 923.1 0.1 43
2019-05-27 00:00:00 14.3 8 Nordeste 27 Nordeste 0 923.3 0.5 40
2019-05-26 23:00:00 15.2 17 Nordeste 32 Nordeste 0 923.1 0.3 36
2019-05-26 22:00:00 15.3 15 Norte 28 Nordeste 0 923 0.1 34
2019-05-26 21:00:00 15.5 11 Nordeste 32 Nordeste 0 922.8 -0.2 36
2019-05-26 20:00:00 17.7 18 Nordeste 33 Nordeste 0 922.8 0 31
2019-05-26 19:00:00 18.4 13 Nordeste 36 Este 0 922.9 0.1 30
2019-05-26 18:00:00 18.8 18 Este 39 Este 0 923 -0.2 31
2019-05-26 17:00:00 19.4 21 Este 39 Nordeste 0 922.8 -0.7 30
2019-05-26 16:00:00 20.5 23 Este 37 Este 0 922.8 -1.1 29
2019-05-26 15:00:00 20 18 Este 32 Este 0 923.2 -0.7 32
2019-05-26 14:00:00 19.6 11 Este 22 Este 0 923.5 -0.8 31
2019-05-26 13:00:00 19.3 8 Nordeste 24 Sur 0 923.9 -0.6 33
2019-05-26 12:00:00 21 15 Sur 23 Sur 0 923.9 -0.7 36
2019-05-26 11:00:00 18.4 8 Sur 14 Sudeste 0 924.3 -0.4 38
2019-05-26 10:00:00 16.9 7 Sur 11 Sur 0 924.5 -0.2 47
2019-05-26 09:00:00 15.6 5 Sur 14 Nordeste 0 924.6 0.1 44
2019-05-26 08:00:00 14.9 8 Nordeste 17 Nordeste 0 924.7 0.4 45
2019-05-26 07:00:00 12 5 Norte 11 Norte 0 924.7 0.3 55
2019-05-26 06:00:00 9.7 10 Norte 13 Norte 0 924.5 -0.1 59
2019-05-26 05:00:00 11.3 4 Noroeste 17 Norte 0 924.3 -0.7 52
2019-05-26 04:00:00 10.5 10 Noroeste 16 Noroeste 0 924.4 -1 56
2019-05-26 03:00:00 11.3 13 Norte 19 Noroeste 0 924.6 -0.9 53
2019-05-26 02:00:00 12.6 4 Norte 19 Norte 0 925 -0.8 46
2019-05-26 01:00:00 12.5 8 Norte 25 Nordeste 0 925.4 0.3 49
2019-05-26 00:00:00 13.5 14 Nordeste 22 Nordeste 0 925.5 1.1 46
2019-05-25 23:00:00 13.8 7 Nordeste 27 Nordeste 0 925.8 1.9 46
2019-05-25 22:00:00 14.5 16 Nordeste 29 Nordeste 0 925.1 1.6 45
2019-05-25 21:00:00 15.3 13 Nordeste 30 Nordeste 0 924.4 0.8 46
2019-05-25 20:00:00 17.9 17 Nordeste 30 Nordeste 0 923.9 0.2 39
2019-05-25 19:00:00 18.8 11 Nordeste 26 Este 0 923.5 -0.1 37
2019-05-25 18:00:00 20.1 15 Este 26 Este 0 923.6 -0.3 36
2019-05-25 17:00:00 19.9 12 Nordeste 28 Nordeste 0 923.7 -0.3 39
2019-05-25 16:00:00 19.2 13 Este 27 Este 0 923.6 -0.4 39
2019-05-25 15:00:00 18.5 15 Norte 23 Noroeste 0 923.9 -0.2 50
2019-05-25 14:00:00 19.1 12 Oeste 16 Oeste 0 924 -0.1 48
2019-05-25 13:00:00 19.5 6 Oeste 14 Sur 0 924 0.1 48
2019-05-25 12:00:00 18.5 9 Sur 17 Sudoeste 0 924.1 0.2 49
2019-05-25 11:00:00 17.8 10 Sur 18 Sur 0 924.1 0.6 47
2019-05-25 10:00:00 16.5 6 Sur 13 Sudeste 0 923.9 0.9 62
2019-05-25 09:00:00 13.2 3 Sur 5 Sur 0 923.9 1.1 89
2019-05-25 08:00:00 11.7 2 Sur 4 Sudoeste 0 923.5 1.1 94
2019-05-25 07:00:00 11 0 Calma 4 Noroeste 0 923 0.4 96
2019-05-25 06:00:00 10.6 3 Este 8 Noroeste 0 922.8 0.4 96
2019-05-25 05:00:00 10.5 3 Nordeste 5 Noroeste 0 922.4 -0.1 97
2019-05-25 04:00:00 10.5 4 Este 6 Este 0 922.6 -0.2 96
2019-05-25 03:00:00 10.5 4 Este 7 Norte 0 922.4 -0.5 94
2019-05-25 02:00:00 10.8 5 Norte 6 Norte 0 922.5 -0.4 92
2019-05-25 01:00:00 11.9 4 Sudoeste 8 Norte 0 922.8 0.1 86
2019-05-25 00:00:00 12.2 2 Sudoeste 4 Sur 0 922.9 0.6 84
2019-05-24 23:00:00 12.6 2 Oeste 5 Nordeste 0 922.9 0.9 83
2019-05-24 22:00:00 12.5 4 Nordeste 5 Nordeste 0 922.7 1 84
2019-05-24 21:00:00 13.4 3 Sur 6 Sur 0 922.3 0.3 78
2019-05-24 20:00:00 14.1 3 Sudoeste 7 Sudoeste 0 922 -0.1 75
2019-05-24 19:00:00 14.7 6 Sur 11 Sur 0 921.7 -0.8 73
2019-05-24 18:00:00 15.1 7 Sur 12 Sur 0 922 -0.6 71
2019-05-24 17:00:00 14.3 7 Sur 13 Sur 0 922.1 -0.7 77
2019-05-24 16:00:00 14.1 9 Sur 14 Sur 0 922.5 -0.2 77
2019-05-24 15:00:00 14.8 6 Sur 16 Norte 0 922.6 -0.4 72
2019-05-24 14:00:00 13.4 9 Nordeste 27 Nordeste 0 922.8 -0.3 62
2019-05-24 13:00:00 13.5 14 Nordeste 28 Nordeste 0 922.7 -0.5 64
2019-05-24 12:00:00 12.9 8 Nordeste 19 Norte 0 923 -0.1 76
2019-05-24 11:00:00 11.9 5 Este 22 Nordeste 0.2 923.1 -0.1 79
2019-05-24 10:00:00 11.7 4 Este 15 Nordeste 1.2 923.2 0.2 92
2019-05-24 09:00:00 10.8 9 Nordeste 19 Nordeste 5.6 923.1 0.7 95
2019-05-24 08:00:00 10.9 5 Nordeste 22 Norte 11.6 923.2 0.4 93
2019-05-24 07:00:00 11.5 13 Norte 16 Norte 1 923 -0.2 95
2019-05-24 06:00:00 12 5 Sur 14 Nordeste 0.2 922.4 -1.1 90
2019-05-24 05:00:00 12.1 5 Nordeste 31 Nordeste 0.2 922.8 -0.8 86
2019-05-24 04:00:00 12.2 17 Nordeste 28 Nordeste 0.4 923.2 -0.8 85
2019-05-24 03:00:00 13.7 7 Sur 13 Noroeste 0 923.5 -0.5 78
2019-05-24 02:00:00 14.7 3 Sudoeste 6 Sudeste 0 923.6 -0.5 67
2019-05-24 01:00:00 14.8 2 Noroeste 26 Norte 0 924 -0.1 63
2019-05-24 00:00:00 14.7 17 Norte 38 Nordeste 0 924 1 67
2019-05-23 23:00:00 14.4 14 Norte 30 Norte 1.2 924.1 1.5 73
2019-05-23 22:00:00 17.4 8 Norte 23 Nordeste 0.6 924.1 1.7 52
2019-05-23 21:00:00 20.3 8 Norte 19 Noroeste 0 923 0.5 38
2019-05-23 20:00:00 22.4 8 Oeste 21 Oeste 0 922.6 -0.1 31
2019-05-23 19:00:00 24 17 Oeste 25 Sudoeste 0 922.4 -0.4 29
2019-05-23 18:00:00 25.3 14 Sudoeste 27 Sudoeste 0 922.5 -0.9 25
2019-05-23 17:00:00 24.1 20 Sudoeste 29 Sudoeste 0 922.7 -1.4 27
2019-05-23 16:00:00 25.8 9 Sur 27 Sudoeste 0 922.8 -1.8 21
2019-05-23 15:00:00 26.2 11 Sur 32 Sudoeste 0 923.4 -1.9 23
2019-05-23 14:00:00 24 10 Sudeste 21 Sudoeste 0 924.1 -1.4 28
2019-05-23 13:00:00 22.8 9 Sur 18 Sur 0 924.6 -1.3 29
2019-05-23 12:00:00 20.7 9 Sur 17 Sudoeste 0 925.3 -0.6 34
2019-05-23 11:00:00 18.5 7 Sur 13 Sur 0 925.5 -0.2 42
2019-05-23 10:00:00 16.2 6 Sur 12 Sudeste 0 925.9 0.3 50
2019-05-23 09:00:00 14.4 5 Sur 7 Sur 0 925.9 0.6 51
2019-05-23 08:00:00 13.3 0 Calma 5 Sur 0 925.7 0.4 45
2019-05-23 07:00:00 10.9 0 Calma 5 Oeste 0 925.6 0.1 51
2019-05-23 06:00:00 11.2 2 Sudoeste 5 Oeste 0 925.3 -0.5 45
2019-05-23 05:00:00 10.7 4 Norte 8 Norte 0 925.3 -0.6 47
2019-05-23 04:00:00 12.1 3 Sudoeste 10 Norte 0 925.5 -0.3 41
2019-05-23 03:00:00 11.6 6 Norte 9 Norte 0 925.8 0.1 42
2019-05-23 02:00:00 13 6 Noroeste 10 Norte 0 925.9 0 37
2019-05-23 01:00:00 13.4 7 Oeste 12 Sudoeste 0 925.8 0.3 37
2019-05-23 00:00:00 14 12 Noroeste 14 Norte 0 925.7 0.8 32
2019-05-22 23:00:00 14.5 8 Noroeste 12 Norte 0 925.9 1.4 35
2019-05-22 22:00:00 15.4 9 Noroeste 13 Noroeste 0 925.5 1.3 36
2019-05-22 21:00:00 17 8 Norte 13 Este 0 924.9 0.7 34
2019-05-22 20:00:00 19.3 9 Sudeste 13 Sudeste 0 924.5 0.3 28
2019-05-22 19:00:00 20.1 6 Sudoeste 18 Sur 0 924.2 -0.1 28
2019-05-22 18:00:00 20.4 12 Sudeste 24 Sur 0 924.2 -0.3 28
2019-05-22 17:00:00 22.5 12 Sur 25 Sudeste 0 924.2 -0.7 27
2019-05-22 16:00:00 23 15 Sur 29 Sur 0 924.3 -1 28
2019-05-22 15:00:00 22.4 9 Sudoeste 24 Sur 0 924.5 -1 27
2019-05-22 14:00:00 21.3 12 Sur 22 Sur 0 924.9 -0.7 35
2019-05-22 13:00:00 20.7 9 Sur 24 Sur 0 925.3 -0.2 34
2019-05-22 12:00:00 19.2 8 Sudeste 20 Sur 0 925.5 0 37
2019-05-22 11:00:00 18.2 8 Sur 18 Sur 0 925.6 0.2 42
2019-05-22 10:00:00 15.8 6 Sur 9 Sur 0 925.5 0.4 53
2019-05-22 09:00:00 13.9 6 Sur 10 Sur 0 925.5 0.8 61
2019-05-22 08:00:00 12.5 2 Sur 6 Sur 0 925.4 0.8 61
2019-05-22 07:00:00 10.8 0 Calma 12 Nordeste 0 925.1 0.6 69
2019-05-22 06:00:00 11.1 10 Nordeste 16 Nordeste 0 924.7 0.2 61
2019-05-22 05:00:00 10.5 0 Calma 6 Sudoeste 0 924.6 0 67
2019-05-22 04:00:00 11.6 4 Oeste 10 Norte 0 924.5 -0.2 64
2019-05-22 03:00:00 11.3 7 Noroeste 14 Nordeste 0 924.5 -0.5 64
2019-05-22 02:00:00 12.6 5 Noroeste 10 Sudoeste 0 924.6 -0.2 65
2019-05-22 01:00:00 13.2 9 Noroeste 14 Noroeste 0 924.7 0.7 64
2019-05-22 00:00:00 14.1 5 Oeste 12 Sudoeste 0 925 1.9 58